sensor_id;sensor_type;location;lat;lon;timestamp;temperature;humidity
54006;DHT22;39919;38.160;-122.260;2023-05-08T00:01:49;19.40;53.30
54006;DHT22;39919;38.160;-122.260;2023-05-08T00:04:18;19.30;52.20
54006;DHT22;39919;38.160;-122.260;2023-05-08T00:06:47;19.20;52.80
54006;DHT22;39919;38.160;-122.260;2023-05-08T00:09:17;19.20;53.50
54006;DHT22;39919;38.160;-122.260;2023-05-08T00:11:46;19.10;53.90
54006;DHT22;39919;38.160;-122.260;2023-05-08T00:14:15;19.10;54.20
54006;DHT22;39919;38.160;-122.260;2023-05-08T00:16:46;19.10;54.60
54006;DHT22;39919;38.160;-122.260;2023-05-08T00:19:15;19.10;54.80
54006;DHT22;39919;38.160;-122.260;2023-05-08T00:21:44;19.00;54.60
54006;DHT22;39919;38.160;-122.260;2023-05-08T00:24:13;19.00;54.70
54006;DHT22;39919;38.160;-122.260;2023-05-08T00:26:42;19.00;54.30
54006;DHT22;39919;38.160;-122.260;2023-05-08T00:29:12;18.90;54.90
54006;DHT22;39919;38.160;-122.260;2023-05-08T00:31:41;18.90;54.70
54006;DHT22;39919;38.160;-122.260;2023-05-08T00:34:11;18.90;54.70
54006;DHT22;39919;38.160;-122.260;2023-05-08T00:36:41;18.80;54.70
54006;DHT22;39919;38.160;-122.260;2023-05-08T00:39:10;18.80;54.50
54006;DHT22;39919;38.160;-122.260;2023-05-08T00:41:39;18.80;54.40
54006;DHT22;39919;38.160;-122.260;2023-05-08T00:44:08;18.70;54.30
54006;DHT22;39919;38.160;-122.260;2023-05-08T00:46:38;18.70;54.40
54006;DHT22;39919;38.160;-122.260;2023-05-08T00:49:08;18.60;55.40
54006;DHT22;39919;38.160;-122.260;2023-05-08T00:51:44;18.60;56.40
54006;DHT22;39919;38.160;-122.260;2023-05-08T00:54:14;18.50;55.70
54006;DHT22;39919;38.160;-122.260;2023-05-08T00:56:43;18.50;55.90
54006;DHT22;39919;38.160;-122.260;2023-05-08T00:59:14;18.40;56.40
54006;DHT22;39919;38.160;-122.260;2023-05-08T01:01:44;18.40;56.10
54006;DHT22;39919;38.160;-122.260;2023-05-08T01:04:16;18.40;56.80
54006;DHT22;39919;38.160;-122.260;2023-05-08T01:06:49;18.40;56.40
54006;DHT22;39919;38.160;-122.260;2023-05-08T01:09:18;18.20;56.20
54006;DHT22;39919;38.160;-122.260;2023-05-08T01:11:51;18.20;56.30
54006;DHT22;39919;38.160;-122.260;2023-05-08T01:14:26;18.10;56.00
54006;DHT22;39919;38.160;-122.260;2023-05-08T01:17:09;18.10;56.50
54006;DHT22;39919;38.160;-122.260;2023-05-08T01:19:56;18.10;57.60
54006;DHT22;39919;38.160;-122.260;2023-05-08T01:32:03;17.80;55.90
54006;DHT22;39919;38.160;-122.260;2023-05-08T01:37:04;17.70;56.80
54006;DHT22;39919;38.160;-122.260;2023-05-08T01:39:38;17.60;57.80
54006;DHT22;39919;38.160;-122.260;2023-05-08T01:42:13;17.60;57.60
54006;DHT22;39919;38.160;-122.260;2023-05-08T01:44:48;17.50;58.30
54006;DHT22;39919;38.160;-122.260;2023-05-08T01:47:24;17.50;58.50
54006;DHT22;39919;38.160;-122.260;2023-05-08T01:50:01;17.50;59.80
54006;DHT22;39919;38.160;-122.260;2023-05-08T01:52:36;17.40;60.60
54006;DHT22;39919;38.160;-122.260;2023-05-08T01:55:15;17.40;60.80
54006;DHT22;39919;38.160;-122.260;2023-05-08T01:57:48;17.50;60.90
54006;DHT22;39919;38.160;-122.260;2023-05-08T02:00:20;17.50;61.00
54006;DHT22;39919;38.160;-122.260;2023-05-08T02:02:52;17.50;60.80
54006;DHT22;39919;38.160;-122.260;2023-05-08T02:05:24;17.60;60.60
54006;DHT22;39919;38.160;-122.260;2023-05-08T02:07:54;17.60;60.40
54006;DHT22;39919;38.160;-122.260;2023-05-08T02:10:25;17.60;60.10
54006;DHT22;39919;38.160;-122.260;2023-05-08T02:12:55;17.50;60.00
54006;DHT22;39919;38.160;-122.260;2023-05-08T02:15:27;17.50;60.00
54006;DHT22;39919;38.160;-122.260;2023-05-08T02:18:00;17.50;59.80
54006;DHT22;39919;38.160;-122.260;2023-05-08T02:20:32;17.40;59.70
54006;DHT22;39919;38.160;-122.260;2023-05-08T02:23:02;17.30;60.00
54006;DHT22;39919;38.160;-122.260;2023-05-08T02:25:32;17.20;60.60
54006;DHT22;39919;38.160;-122.260;2023-05-08T02:28:05;17.20;60.90
54006;DHT22;39919;38.160;-122.260;2023-05-08T02:30:35;17.10;60.80
54006;DHT22;39919;38.160;-122.260;2023-05-08T02:33:08;17.00;61.00
54006;DHT22;39919;38.160;-122.260;2023-05-08T02:35:39;17.00;75.50
54006;DHT22;39919;38.160;-122.260;2023-05-08T02:38:10;16.90;73.40
54006;DHT22;39919;38.160;-122.260;2023-05-08T02:40:43;16.90;75.50
54006;DHT22;39919;38.160;-122.260;2023-05-08T02:43:13;16.80;72.30
54006;DHT22;39919;38.160;-122.260;2023-05-08T02:45:48;16.70;70.00
54006;DHT22;39919;38.160;-122.260;2023-05-08T02:48:31;16.70;69.90
54006;DHT22;39919;38.160;-122.260;2023-05-08T02:51:09;16.50;70.70
54006;DHT22;39919;38.160;-122.260;2023-05-08T02:53:44;16.50;70.60
54006;DHT22;39919;38.160;-122.260;2023-05-08T02:56:20;16.40;71.50
54006;DHT22;39919;38.160;-122.260;2023-05-08T02:59:00;16.30;72.40
54006;DHT22;39919;38.160;-122.260;2023-05-08T03:01:39;16.20;78.90
54006;DHT22;39919;38.160;-122.260;2023-05-08T03:04:13;16.10;77.30
54006;DHT22;39919;38.160;-122.260;2023-05-08T03:06:46;16.00;76.40
54006;DHT22;39919;38.160;-122.260;2023-05-08T03:09:18;16.00;78.30
54006;DHT22;39919;38.160;-122.260;2023-05-08T03:11:49;15.90;83.60
54006;DHT22;39919;38.160;-122.260;2023-05-08T03:14:25;15.80;80.60
54006;DHT22;39919;38.160;-122.260;2023-05-08T03:16:56;15.70;80.80
54006;DHT22;39919;38.160;-122.260;2023-05-08T03:19:32;15.60;82.00
54006;DHT22;39919;38.160;-122.260;2023-05-08T03:22:03;15.50;81.50
54006;DHT22;39919;38.160;-122.260;2023-05-08T03:24:34;15.50;81.50
54006;DHT22;39919;38.160;-122.260;2023-05-08T03:27:05;15.40;82.20
54006;DHT22;39919;38.160;-122.260;2023-05-08T03:29:37;15.20;82.00
54006;DHT22;39919;38.160;-122.260;2023-05-08T03:32:09;15.20;82.20
54006;DHT22;39919;38.160;-122.260;2023-05-08T03:34:41;15.10;82.00
54006;DHT22;39919;38.160;-122.260;2023-05-08T03:37:11;15.10;79.20
54006;DHT22;39919;38.160;-122.260;2023-05-08T03:39:40;15.00;79.10
54006;DHT22;39919;38.160;-122.260;2023-05-08T03:42:10;14.90;78.80
54006;DHT22;39919;38.160;-122.260;2023-05-08T03:44:47;14.90;79.40
54006;DHT22;39919;38.160;-122.260;2023-05-08T03:47:18;14.80;79.80
54006;DHT22;39919;38.160;-122.260;2023-05-08T03:49:49;14.70;80.30
54006;DHT22;39919;38.160;-122.260;2023-05-08T03:52:18;14.60;80.20
54006;DHT22;39919;38.160;-122.260;2023-05-08T03:54:48;14.60;81.40
54006;DHT22;39919;38.160;-122.260;2023-05-08T03:57:17;14.60;82.90
54006;DHT22;39919;38.160;-122.260;2023-05-08T03:59:51;14.50;83.50
54006;DHT22;39919;38.160;-122.260;2023-05-08T04:02:28;14.40;87.70
54006;DHT22;39919;38.160;-122.260;2023-05-08T04:05:08;14.40;90.50
54006;DHT22;39919;38.160;-122.260;2023-05-08T04:07:47;14.30;91.60
54006;DHT22;39919;38.160;-122.260;2023-05-08T04:10:23;14.20;92.30
54006;DHT22;39919;38.160;-122.260;2023-05-08T04:13:04;14.20;93.60
54006;DHT22;39919;38.160;-122.260;2023-05-08T04:38:11;13.60;69.10
54006;DHT22;39919;38.160;-122.260;2023-05-08T04:40:40;13.60;69.70
54006;DHT22;39919;38.160;-122.260;2023-05-08T04:43:09;13.60;69.60
54006;DHT22;39919;38.160;-122.260;2023-05-08T04:45:38;13.60;69.40
54006;DHT22;39919;38.160;-122.260;2023-05-08T04:48:08;13.50;69.30
54006;DHT22;39919;38.160;-122.260;2023-05-08T04:50:37;13.50;69.30
54006;DHT22;39919;38.160;-122.260;2023-05-08T04:53:07;13.40;69.00
54006;DHT22;39919;38.160;-122.260;2023-05-08T04:55:37;13.40;69.60
54006;DHT22;39919;38.160;-122.260;2023-05-08T04:58:06;13.30;69.50
54006;DHT22;39919;38.160;-122.260;2023-05-08T05:00:35;13.30;69.80
54006;DHT22;39919;38.160;-122.260;2023-05-08T05:03:04;13.30;70.00
54006;DHT22;39919;38.160;-122.260;2023-05-08T05:05:35;13.20;70.10
54006;DHT22;39919;38.160;-122.260;2023-05-08T05:08:04;13.20;70.20
54006;DHT22;39919;38.160;-122.260;2023-05-08T05:10:36;13.10;70.10
54006;DHT22;39919;38.160;-122.260;2023-05-08T05:13:05;13.10;70.30
54006;DHT22;39919;38.160;-122.260;2023-05-08T05:15:34;13.00;70.40
54006;DHT22;39919;38.160;-122.260;2023-05-08T05:18:04;13.00;70.40
54006;DHT22;39919;38.160;-122.260;2023-05-08T05:20:33;13.00;70.90
54006;DHT22;39919;38.160;-122.260;2023-05-08T05:23:02;13.00;71.70
54006;DHT22;39919;38.160;-122.260;2023-05-08T05:25:31;12.90;72.10
54006;DHT22;39919;38.160;-122.260;2023-05-08T05:28:02;12.90;72.00
54006;DHT22;39919;38.160;-122.260;2023-05-08T05:30:32;12.90;72.50
54006;DHT22;39919;38.160;-122.260;2023-05-08T05:33:01;12.80;72.50
54006;DHT22;39919;38.160;-122.260;2023-05-08T05:35:30;12.80;72.50
54006;DHT22;39919;38.160;-122.260;2023-05-08T05:37:59;12.80;72.30
54006;DHT22;39919;38.160;-122.260;2023-05-08T05:40:28;12.70;73.10
54006;DHT22;39919;38.160;-122.260;2023-05-08T05:42:57;12.70;73.10
54006;DHT22;39919;38.160;-122.260;2023-05-08T05:45:28;12.70;72.60
54006;DHT22;39919;38.160;-122.260;2023-05-08T05:47:58;12.60;73.40
54006;DHT22;39919;38.160;-122.260;2023-05-08T05:50:27;12.60;73.70
54006;DHT22;39919;38.160;-122.260;2023-05-08T05:52:56;12.60;73.30
54006;DHT22;39919;38.160;-122.260;2023-05-08T05:55:25;12.60;74.00
54006;DHT22;39919;38.160;-122.260;2023-05-08T05:57:54;12.60;75.00
54006;DHT22;39919;38.160;-122.260;2023-05-08T06:00:23;12.50;74.80
54006;DHT22;39919;38.160;-122.260;2023-05-08T06:02:55;12.50;74.90
54006;DHT22;39919;38.160;-122.260;2023-05-08T06:05:24;12.50;75.10
54006;DHT22;39919;38.160;-122.260;2023-05-08T06:07:54;12.40;74.90
54006;DHT22;39919;38.160;-122.260;2023-05-08T06:10:23;12.40;75.10
54006;DHT22;39919;38.160;-122.260;2023-05-08T06:12:52;12.40;75.20
54006;DHT22;39919;38.160;-122.260;2023-05-08T06:15:22;12.30;75.00
54006;DHT22;39919;38.160;-122.260;2023-05-08T06:17:51;12.30;75.50
54006;DHT22;39919;38.160;-122.260;2023-05-08T06:20:22;12.30;75.50
54006;DHT22;39919;38.160;-122.260;2023-05-08T06:22:51;12.30;75.00
54006;DHT22;39919;38.160;-122.260;2023-05-08T06:25:20;12.30;75.20
54006;DHT22;39919;38.160;-122.260;2023-05-08T06:27:49;12.20;75.00
54006;DHT22;39919;38.160;-122.260;2023-05-08T06:30:18;12.20;75.00
54006;DHT22;39919;38.160;-122.260;2023-05-08T06:32:47;12.20;75.80
54006;DHT22;39919;38.160;-122.260;2023-05-08T06:35:16;12.20;76.10
54006;DHT22;39919;38.160;-122.260;2023-05-08T06:37:47;12.20;75.80
54006;DHT22;39919;38.160;-122.260;2023-05-08T06:40:16;12.10;75.90
54006;DHT22;39919;38.160;-122.260;2023-05-08T06:42:46;12.10;75.50
54006;DHT22;39919;38.160;-122.260;2023-05-08T06:45:16;12.10;75.50
54006;DHT22;39919;38.160;-122.260;2023-05-08T06:47:46;12.10;75.40
54006;DHT22;39919;38.160;-122.260;2023-05-08T06:50:20;12.00;75.30
54006;DHT22;39919;38.160;-122.260;2023-05-08T06:52:51;12.00;75.30
54006;DHT22;39919;38.160;-122.260;2023-05-08T06:55:20;12.00;75.70
54006;DHT22;39919;38.160;-122.260;2023-05-08T06:57:50;12.00;76.50
54006;DHT22;39919;38.160;-122.260;2023-05-08T07:00:19;12.00;77.30
54006;DHT22;39919;38.160;-122.260;2023-05-08T07:02:48;12.00;77.20
54006;DHT22;39919;38.160;-122.260;2023-05-08T07:05:17;12.00;77.70
54006;DHT22;39919;38.160;-122.260;2023-05-08T07:07:47;11.90;77.30
54006;DHT22;39919;38.160;-122.260;2023-05-08T07:10:18;11.90;78.30
54006;DHT22;39919;38.160;-122.260;2023-05-08T07:12:48;11.90;78.40
54006;DHT22;39919;38.160;-122.260;2023-05-08T07:15:18;11.90;78.10
54006;DHT22;39919;38.160;-122.260;2023-05-08T07:17:47;11.80;78.30
54006;DHT22;39919;38.160;-122.260;2023-05-08T07:20:16;11.80;78.10
54006;DHT22;39919;38.160;-122.260;2023-05-08T07:22:46;11.80;78.10
54006;DHT22;39919;38.160;-122.260;2023-05-08T07:25:16;11.80;78.00
54006;DHT22;39919;38.160;-122.260;2023-05-08T07:27:46;11.70;78.30
54006;DHT22;39919;38.160;-122.260;2023-05-08T07:30:15;11.70;78.60
54006;DHT22;39919;38.160;-122.260;2023-05-08T07:32:44;11.70;78.40
54006;DHT22;39919;38.160;-122.260;2023-05-08T07:35:13;11.70;78.70
54006;DHT22;39919;38.160;-122.260;2023-05-08T07:37:42;11.70;78.80
54006;DHT22;39919;38.160;-122.260;2023-05-08T07:40:11;11.70;79.20
54006;DHT22;39919;38.160;-122.260;2023-05-08T07:42:43;11.70;79.00
54006;DHT22;39919;38.160;-122.260;2023-05-08T07:45:13;11.70;79.00
54006;DHT22;39919;38.160;-122.260;2023-05-08T07:47:49;11.70;78.50
54006;DHT22;39919;38.160;-122.260;2023-05-08T07:50:18;11.70;78.00
54006;DHT22;39919;38.160;-122.260;2023-05-08T07:52:47;11.60;78.40
54006;DHT22;39919;38.160;-122.260;2023-05-08T07:55:17;11.60;78.70
54006;DHT22;39919;38.160;-122.260;2023-05-08T07:57:48;11.60;78.40
54006;DHT22;39919;38.160;-122.260;2023-05-08T08:00:18;11.60;78.40
54006;DHT22;39919;38.160;-122.260;2023-05-08T08:02:48;11.60;78.30
54006;DHT22;39919;38.160;-122.260;2023-05-08T08:05:17;11.60;78.40
54006;DHT22;39919;38.160;-122.260;2023-05-08T08:07:46;11.60;78.70
54006;DHT22;39919;38.160;-122.260;2023-05-08T08:10:15;11.50;78.80
54006;DHT22;39919;38.160;-122.260;2023-05-08T08:12:44;11.50;79.20
54006;DHT22;39919;38.160;-122.260;2023-05-08T08:15:15;11.50;79.40
54006;DHT22;39919;38.160;-122.260;2023-05-08T08:17:44;11.50;79.20
54006;DHT22;39919;38.160;-122.260;2023-05-08T08:20:14;11.50;79.80
54006;DHT22;39919;38.160;-122.260;2023-05-08T08:22:44;11.50;79.80
54006;DHT22;39919;38.160;-122.260;2023-05-08T08:25:13;11.50;79.80
54006;DHT22;39919;38.160;-122.260;2023-05-08T08:27:42;11.50;80.10
54006;DHT22;39919;38.160;-122.260;2023-05-08T08:30:12;11.40;80.40
54006;DHT22;39919;38.160;-122.260;2023-05-08T08:32:43;11.40;80.60
54006;DHT22;39919;38.160;-122.260;2023-05-08T08:35:12;11.40;80.20
54006;DHT22;39919;38.160;-122.260;2023-05-08T08:37:41;11.40;81.20
54006;DHT22;39919;38.160;-122.260;2023-05-08T08:40:10;11.40;81.20
54006;DHT22;39919;38.160;-122.260;2023-05-08T08:42:39;11.40;81.50
54006;DHT22;39919;38.160;-122.260;2023-05-08T08:45:09;11.40;82.30
54006;DHT22;39919;38.160;-122.260;2023-05-08T08:47:41;11.40;82.40
54006;DHT22;39919;38.160;-122.260;2023-05-08T08:50:13;11.40;82.40
54006;DHT22;39919;38.160;-122.260;2023-05-08T08:52:47;11.40;82.70
54006;DHT22;39919;38.160;-122.260;2023-05-08T08:55:20;11.40;82.30
54006;DHT22;39919;38.160;-122.260;2023-05-08T08:57:57;11.40;82.20
54006;DHT22;39919;38.160;-122.260;2023-05-08T09:00:29;11.40;82.40
54006;DHT22;39919;38.160;-122.260;2023-05-08T09:03:01;11.30;82.70
54006;DHT22;39919;38.160;-122.260;2023-05-08T09:05:31;11.40;84.10
54006;DHT22;39919;38.160;-122.260;2023-05-08T09:08:00;11.30;83.70
54006;DHT22;39919;38.160;-122.260;2023-05-08T09:10:30;11.30;83.70
54006;DHT22;39919;38.160;-122.260;2023-05-08T09:12:59;11.30;84.40
54006;DHT22;39919;38.160;-122.260;2023-05-08T09:15:28;11.30;84.20
54006;DHT22;39919;38.160;-122.260;2023-05-08T09:18:00;11.20;84.30
54006;DHT22;39919;38.160;-122.260;2023-05-08T09:20:30;11.30;84.20
54006;DHT22;39919;38.160;-122.260;2023-05-08T09:23:01;11.20;83.60
54006;DHT22;39919;38.160;-122.260;2023-05-08T09:25:41;11.20;84.30
54006;DHT22;39919;38.160;-122.260;2023-05-08T09:28:16;11.20;84.10
54006;DHT22;39919;38.160;-122.260;2023-05-08T09:30:51;11.20;85.10
54006;DHT22;39919;38.160;-122.260;2023-05-08T09:33:23;11.20;87.20
54006;DHT22;39919;38.160;-122.260;2023-05-08T09:35:53;11.30;88.00
54006;DHT22;39919;38.160;-122.260;2023-05-08T09:38:35;11.30;88.30
54006;DHT22;39919;38.160;-122.260;2023-05-08T09:41:09;11.30;89.00
54006;DHT22;39919;38.160;-122.260;2023-05-08T09:43:38;11.40;90.00
54006;DHT22;39919;38.160;-122.260;2023-05-08T09:46:24;11.40;90.60
54006;DHT22;39919;38.160;-122.260;2023-05-08T09:48:56;11.50;90.60
54006;DHT22;39919;38.160;-122.260;2023-05-08T09:51:27;11.50;90.70
54006;DHT22;39919;38.160;-122.260;2023-05-08T09:53:58;11.60;90.70
54006;DHT22;39919;38.160;-122.260;2023-05-08T09:56:32;11.70;90.70
54006;DHT22;39919;38.160;-122.260;2023-05-08T09:59:03;11.70;91.10
54006;DHT22;39919;38.160;-122.260;2023-05-08T10:01:33;11.80;91.50
54006;DHT22;39919;38.160;-122.260;2023-05-08T10:04:04;11.90;91.40
54006;DHT22;39919;38.160;-122.260;2023-05-08T10:06:33;12.00;91.70
54006;DHT22;39919;38.160;-122.260;2023-05-08T10:09:07;12.10;91.90
54006;DHT22;39919;38.160;-122.260;2023-05-08T10:11:36;12.10;92.00
54006;DHT22;39919;38.160;-122.260;2023-05-08T10:14:09;12.20;91.90
54006;DHT22;39919;38.160;-122.260;2023-05-08T10:16:41;12.30;91.70
54006;DHT22;39919;38.160;-122.260;2023-05-08T10:19:14;12.40;91.90
54006;DHT22;39919;38.160;-122.260;2023-05-08T10:21:46;12.40;91.80
54006;DHT22;39919;38.160;-122.260;2023-05-08T10:24:17;12.50;92.00
54006;DHT22;39919;38.160;-122.260;2023-05-08T10:26:54;12.50;91.70
54006;DHT22;39919;38.160;-122.260;2023-05-08T10:29:31;12.60;91.80
54006;DHT22;39919;38.160;-122.260;2023-05-08T10:32:02;12.70;91.60
54006;DHT22;39919;38.160;-122.260;2023-05-08T10:34:39;12.70;91.60
54006;DHT22;39919;38.160;-122.260;2023-05-08T10:37:10;12.80;91.60
54006;DHT22;39919;38.160;-122.260;2023-05-08T10:39:40;12.80;91.50
54006;DHT22;39919;38.160;-122.260;2023-05-08T10:42:10;12.80;91.40
54006;DHT22;39919;38.160;-122.260;2023-05-08T10:44:41;12.80;91.20
54006;DHT22;39919;38.160;-122.260;2023-05-08T10:47:16;12.80;91.30
54006;DHT22;39919;38.160;-122.260;2023-05-08T10:49:57;12.90;91.00
54006;DHT22;39919;38.160;-122.260;2023-05-08T10:52:33;12.90;90.70
54006;DHT22;39919;38.160;-122.260;2023-05-08T10:55:21;12.90;90.70
54006;DHT22;39919;38.160;-122.260;2023-05-08T10:58:05;13.00;90.50
54006;DHT22;39919;38.160;-122.260;2023-05-08T11:01:15;13.00;90.10
54006;DHT22;39919;38.160;-122.260;2023-05-08T11:03:48;13.00;90.10
54006;DHT22;39919;38.160;-122.260;2023-05-08T11:06:43;13.00;90.00
54006;DHT22;39919;38.160;-122.260;2023-05-08T11:09:20;13.00;89.60
54006;DHT22;39919;38.160;-122.260;2023-05-08T11:12:15;13.10;89.00
54006;DHT22;39919;38.160;-122.260;2023-05-08T11:14:54;13.10;88.30
54006;DHT22;39919;38.160;-122.260;2023-05-08T11:17:24;13.10;88.50
54006;DHT22;39919;38.160;-122.260;2023-05-08T11:19:58;13.10;88.70
54006;DHT22;39919;38.160;-122.260;2023-05-08T11:22:30;13.10;88.70
54006;DHT22;39919;38.160;-122.260;2023-05-08T11:25:01;13.10;89.40
54006;DHT22;39919;38.160;-122.260;2023-05-08T11:27:34;13.10;89.40
54006;DHT22;39919;38.160;-122.260;2023-05-08T11:30:33;13.10;89.70
54006;DHT22;39919;38.160;-122.260;2023-05-08T11:33:16;13.10;89.90
54006;DHT22;39919;38.160;-122.260;2023-05-08T11:35:47;13.20;89.90
54006;DHT22;39919;38.160;-122.260;2023-05-08T11:38:29;13.20;89.60
54006;DHT22;39919;38.160;-122.260;2023-05-08T11:41:03;13.20;89.60
54006;DHT22;39919;38.160;-122.260;2023-05-08T11:46:47;13.20;89.80
54006;DHT22;39919;38.160;-122.260;2023-05-08T11:49:17;13.20;89.70
54006;DHT22;39919;38.160;-122.260;2023-05-08T11:51:48;13.20;89.50
54006;DHT22;39919;38.160;-122.260;2023-05-08T11:54:22;13.20;89.40
54006;DHT22;39919;38.160;-122.260;2023-05-08T11:56:52;13.20;89.80
54006;DHT22;39919;38.160;-122.260;2023-05-08T11:59:21;13.30;89.70
54006;DHT22;39919;38.160;-122.260;2023-05-08T12:01:50;13.30;89.70
54006;DHT22;39919;38.160;-122.260;2023-05-08T12:04:19;13.30;89.60
54006;DHT22;39919;38.160;-122.260;2023-05-08T12:06:49;13.30;89.40
54006;DHT22;39919;38.160;-122.260;2023-05-08T12:09:26;13.30;88.80
54006;DHT22;39919;38.160;-122.260;2023-05-08T12:11:59;13.30;88.30
54006;DHT22;39919;38.160;-122.260;2023-05-08T12:14:28;13.30;88.00
54006;DHT22;39919;38.160;-122.260;2023-05-08T12:16:57;13.30;87.50
54006;DHT22;39919;38.160;-122.260;2023-05-08T12:19:26;13.30;87.10
54006;DHT22;39919;38.160;-122.260;2023-05-08T12:21:56;13.30;86.60
54006;DHT22;39919;38.160;-122.260;2023-05-08T12:24:27;13.30;86.20
54006;DHT22;39919;38.160;-122.260;2023-05-08T12:26:56;13.30;85.80
54006;DHT22;39919;38.160;-122.260;2023-05-08T12:29:25;13.30;85.20
54006;DHT22;39919;38.160;-122.260;2023-05-08T12:31:55;13.30;84.50
54006;DHT22;39919;38.160;-122.260;2023-05-08T12:34:24;13.40;84.00
54006;DHT22;39919;38.160;-122.260;2023-05-08T12:37:02;13.30;83.30
54006;DHT22;39919;38.160;-122.260;2023-05-08T12:39:36;13.30;83.10
54006;DHT22;39919;38.160;-122.260;2023-05-08T12:42:06;13.30;82.90
54006;DHT22;39919;38.160;-122.260;2023-05-08T12:44:35;13.30;82.50
54006;DHT22;39919;38.160;-122.260;2023-05-08T12:47:04;13.30;82.40
54006;DHT22;39919;38.160;-122.260;2023-05-08T12:49:34;13.30;82.30
54006;DHT22;39919;38.160;-122.260;2023-05-08T12:52:04;13.30;82.30
54006;DHT22;39919;38.160;-122.260;2023-05-08T12:54:38;13.30;82.20
54006;DHT22;39919;38.160;-122.260;2023-05-08T12:57:12;13.30;82.00
54006;DHT22;39919;38.160;-122.260;2023-05-08T12:59:42;13.30;82.00
54006;DHT22;39919;38.160;-122.260;2023-05-08T13:02:15;13.30;81.90
54006;DHT22;39919;38.160;-122.260;2023-05-08T13:04:45;13.30;81.80
54006;DHT22;39919;38.160;-122.260;2023-05-08T13:07:14;13.40;81.70
54006;DHT22;39919;38.160;-122.260;2023-05-08T13:10:01;13.30;81.70
54006;DHT22;39919;38.160;-122.260;2023-05-08T13:12:30;13.40;81.50
54006;DHT22;39919;38.160;-122.260;2023-05-08T13:15:00;13.40;81.60
54006;DHT22;39919;38.160;-122.260;2023-05-08T13:17:30;13.40;81.60
54006;DHT22;39919;38.160;-122.260;2023-05-08T13:19:59;13.40;81.70
54006;DHT22;39919;38.160;-122.260;2023-05-08T13:22:29;13.40;81.80
54006;DHT22;39919;38.160;-122.260;2023-05-08T13:25:00;13.40;81.70
54006;DHT22;39919;38.160;-122.260;2023-05-08T13:27:29;13.50;81.70
54006;DHT22;39919;38.160;-122.260;2023-05-08T13:29:58;13.50;81.90
54006;DHT22;39919;38.160;-122.260;2023-05-08T13:32:27;13.50;82.30
54006;DHT22;39919;38.160;-122.260;2023-05-08T13:34:57;13.50;83.10
54006;DHT22;39919;38.160;-122.260;2023-05-08T13:37:26;13.50;83.50
54006;DHT22;39919;38.160;-122.260;2023-05-08T13:39:55;13.50;83.60
54006;DHT22;39919;38.160;-122.260;2023-05-08T13:42:27;13.50;83.90
54006;DHT22;39919;38.160;-122.260;2023-05-08T13:44:56;13.50;84.00
54006;DHT22;39919;38.160;-122.260;2023-05-08T13:47:25;13.50;84.10
54006;DHT22;39919;38.160;-122.260;2023-05-08T13:49:54;13.40;84.50
54006;DHT22;39919;38.160;-122.260;2023-05-08T13:52:23;13.40;85.10
54006;DHT22;39919;38.160;-122.260;2023-05-08T13:54:52;13.50;85.90
54006;DHT22;39919;38.160;-122.260;2023-05-08T13:57:21;13.50;86.30
54006;DHT22;39919;38.160;-122.260;2023-05-08T13:59:52;13.50;86.50
54006;DHT22;39919;38.160;-122.260;2023-05-08T14:02:21;13.50;86.60
54006;DHT22;39919;38.160;-122.260;2023-05-08T14:04:50;13.50;86.40
54006;DHT22;39919;38.160;-122.260;2023-05-08T14:07:19;13.50;86.60
54006;DHT22;39919;38.160;-122.260;2023-05-08T14:09:49;13.50;87.10
54006;DHT22;39919;38.160;-122.260;2023-05-08T14:12:18;13.50;87.30
54006;DHT22;39919;38.160;-122.260;2023-05-08T14:14:47;13.60;87.80
54006;DHT22;39919;38.160;-122.260;2023-05-08T14:17:18;13.60;87.70
54006;DHT22;39919;38.160;-122.260;2023-05-08T14:19:47;13.60;87.80
54006;DHT22;39919;38.160;-122.260;2023-05-08T14:22:16;13.70;87.70
54006;DHT22;39919;38.160;-122.260;2023-05-08T14:24:45;13.60;88.30
54006;DHT22;39919;38.160;-122.260;2023-05-08T14:27:14;13.70;87.70
54006;DHT22;39919;38.160;-122.260;2023-05-08T14:29:43;13.70;88.70
54006;DHT22;39919;38.160;-122.260;2023-05-08T14:32:12;13.70;89.20
54006;DHT22;39919;38.160;-122.260;2023-05-08T14:37:26;13.70;91.20
54006;DHT22;39919;38.160;-122.260;2023-05-08T14:39:55;13.70;92.30
54006;DHT22;39919;38.160;-122.260;2023-05-08T14:42:25;13.70;93.10
54006;DHT22;39919;38.160;-122.260;2023-05-08T14:44:54;13.70;93.70
54006;DHT22;39919;38.160;-122.260;2023-05-08T14:47:23;13.70;93.90
54006;DHT22;39919;38.160;-122.260;2023-05-08T14:49:54;13.70;94.10
54006;DHT22;39919;38.160;-122.260;2023-05-08T14:52:23;13.70;94.30
54006;DHT22;39919;38.160;-122.260;2023-05-08T14:54:52;13.70;94.30
54006;DHT22;39919;38.160;-122.260;2023-05-08T14:57:21;13.70;94.60
54006;DHT22;39919;38.160;-122.260;2023-05-08T14:59:50;13.80;94.80
54006;DHT22;39919;38.160;-122.260;2023-05-08T15:02:21;13.80;94.70
54006;DHT22;39919;38.160;-122.260;2023-05-08T15:04:50;13.80;94.80
54006;DHT22;39919;38.160;-122.260;2023-05-08T15:07:21;13.80;95.10
54006;DHT22;39919;38.160;-122.260;2023-05-08T15:09:50;13.80;95.20
54006;DHT22;39919;38.160;-122.260;2023-05-08T15:12:22;13.90;95.30
54006;DHT22;39919;38.160;-122.260;2023-05-08T15:14:51;13.90;95.60
54006;DHT22;39919;38.160;-122.260;2023-05-08T15:17:20;13.90;95.90
54006;DHT22;39919;38.160;-122.260;2023-05-08T15:19:49;13.90;96.10
54006;DHT22;39919;38.160;-122.260;2023-05-08T15:22:20;13.90;96.20
54006;DHT22;39919;38.160;-122.260;2023-05-08T15:24:49;13.90;96.20
54006;DHT22;39919;38.160;-122.260;2023-05-08T15:27:18;13.90;96.60
54006;DHT22;39919;38.160;-122.260;2023-05-08T15:29:48;13.90;96.50
54006;DHT22;39919;38.160;-122.260;2023-05-08T15:32:17;13.90;96.60
54006;DHT22;39919;38.160;-122.260;2023-05-08T15:34:46;13.90;97.00
54006;DHT22;39919;38.160;-122.260;2023-05-08T15:37:15;14.00;97.00
54006;DHT22;39919;38.160;-122.260;2023-05-08T15:39:48;14.10;97.00
54006;DHT22;39919;38.160;-122.260;2023-05-08T15:42:18;14.10;97.00
54006;DHT22;39919;38.160;-122.260;2023-05-08T15:44:48;14.10;96.70
54006;DHT22;39919;38.160;-122.260;2023-05-08T15:47:18;14.10;96.70
54006;DHT22;39919;38.160;-122.260;2023-05-08T15:49:48;14.10;96.70
54006;DHT22;39919;38.160;-122.260;2023-05-08T15:52:17;14.10;96.40
54006;DHT22;39919;38.160;-122.260;2023-05-08T15:54:48;14.10;96.20